Aviation Digital Data Service (ADDS)

Output produced by METARs form (0052 UTC 22 September 2017)
found at http://www.aviationweather.gov/adds/metars/
 
OBBI 220100Z VRB01KT CAVOK 31/26 Q1003 NOSIG
TAF OBBI 212300Z 2200/2306 VRB05KT CAVOK 
     PROB30 
     TEMPO 2201/2204 5000 HZ NSC 
     BECMG 2208/2210 08010KT 
     BECMG 2218/2220 VRB05KT 
     PROB30 
     TEMPO 2301/2304 5000 HZ NSC